PLF161 EPIR-EPIR
Flight info
| Callsign | PLF161 |
|---|---|
| Flight time | 0h 2m |
| Altitude | 1500 |
| Route | EPIRW |
| Aircraft | H64/M-G/C |
Departure
| Time | 2026-04-21 07:40 |
|---|---|
| Airport | Inowroclaw Military Air Base (EPIR) |
Arrival
| Time | 2026-04-21 07:42 |
|---|---|
| Airport | Inowroclaw Military Air Base (EPIR) |
| Time | Latitude | Longitude | Altitude | Speed | Heading |
|---|---|---|---|---|---|
| 2026-04-21 07:35 | 52.83123 | 18.31830 | 270 ft | 0 kts | 187° |
| 2026-04-21 07:35 | 52.83122 | 18.31828 | 272 ft | 1 kts | 192° |
| 2026-04-21 07:35 | 52.83098 | 18.31822 | 287 ft | 11 kts | 197° |
| 2026-04-21 07:36 | 52.83034 | 18.31835 | 293 ft | 10 kts | 188° |
| 2026-04-21 07:36 | 52.82965 | 18.31862 | 294 ft | 11 kts | 158° |
| 2026-04-21 07:36 | 52.82900 | 18.31905 | 286 ft | 11 kts | 173° |
| 2026-04-21 07:36 | 52.82834 | 18.31891 | 286 ft | 18 kts | 155° |
| 2026-04-21 07:37 | 52.82740 | 18.32025 | 300 ft | 17 kts | 142° |
| 2026-04-21 07:37 | 52.82654 | 18.32154 | 295 ft | 14 kts | 154° |
| 2026-04-21 07:37 | 52.82623 | 18.32204 | 284 ft | 0 kts | 160° |
| 2026-04-21 07:38 | 52.82592 | 18.32209 | 326 ft | 17 kts | 163° |
| 2026-04-21 07:38 | 52.82622 | 18.32492 | 418 ft | 55 kts | 59° |
| 2026-04-21 07:39 | 52.82719 | 18.33397 | 522 ft | 105 kts | 93° |
| 2026-04-21 07:39 | 52.82557 | 18.34739 | 595 ft | 131 kts | 100° |
| 2026-04-21 07:39 | 52.82256 | 18.36224 | 737 ft | 141 kts | 106° |
| 2026-04-21 07:39 | 52.81926 | 18.37852 | 727 ft | 153 kts | 101° |
| 2026-04-21 07:40 | 52.81586 | 18.39564 | 771 ft | 160 kts | 99° |
| 2026-04-21 07:40 | 52.81439 | 18.41331 | 948 ft | 149 kts | 83° |
| 2026-04-21 07:40 | 52.81466 | 18.42887 | 1523 ft | 127 kts | 85° |
| 2026-04-21 07:40 | 52.81415 | 18.44411 | 1602 ft | 141 kts | 88° |
| 2026-04-21 07:41 | 52.81354 | 18.46106 | 1603 ft | 151 kts | 88° |
| 2026-04-21 07:41 | 52.81289 | 18.47888 | 1569 ft | 160 kts | 88° |
| 2026-04-21 07:41 | 52.81239 | 18.49649 | 1109 ft | 137 kts | 94° |
| 2026-04-21 07:41 | 52.80785 | 18.50704 | 413 ft | 86 kts | 149° |
| 2026-04-21 07:42 | 52.80716 | 18.51252 | 453 ft | 66 kts | 49° |
| 2026-04-21 07:42 | 52.81080 | 18.51686 | 929 ft | 65 kts | 35° |
| 2026-04-21 07:42 | 52.81448 | 18.51871 | 1411 ft | 40 kts | 338° |
| 2026-04-21 07:42 | 52.81225 | 18.51375 | 1741 ft | 81 kts | 189° |
| 2026-04-21 07:43 | 52.80514 | 18.51519 | 1738 ft | 128 kts | 167° |
| 2026-04-21 07:43 | 52.79529 | 18.51641 | 1676 ft | 147 kts | 168° |
| 2026-04-21 07:43 | 52.78525 | 18.51742 | 1074 ft | 140 kts | 161° |
| 2026-04-21 07:43 | 52.78090 | 18.52402 | 444 ft | 56 kts | 50° |
| 2026-04-21 07:44 | 52.78387 | 18.52677 | 487 ft | 61 kts | 29° |
| 2026-04-21 07:44 | 52.78811 | 18.53136 | 771 ft | 80 kts | 32° |
| 2026-04-21 07:44 | 52.79275 | 18.53304 | 1330 ft | 73 kts | 336° |
| 2026-04-21 07:44 | 52.79639 | 18.52440 | 1508 ft | 104 kts | 323° |
| 2026-04-21 07:45 | 52.80336 | 18.51822 | 1537 ft | 126 kts | 352° |
| 2026-04-21 07:45 | 52.81246 | 18.51771 | 1634 ft | 130 kts | 2° |
| 2026-04-21 07:45 | 52.81724 | 18.52475 | 652 ft | 91 kts | 89° |
| 2026-04-21 07:45 | 52.81989 | 18.52997 | 459 ft | 81 kts | 338° |
| 2026-04-21 07:46 | 52.81987 | 18.52274 | 608 ft | 94 kts | 208° |
| 2026-04-21 07:46 | 52.81311 | 18.51654 | 736 ft | 123 kts | 216° |
| 2026-04-21 07:46 | 52.80644 | 18.50668 | 964 ft | 131 kts | 226° |
| 2026-04-21 07:46 | 52.80125 | 18.49773 | 1031 ft | 76 kts | 224° |
| 2026-04-21 07:47 | 52.79919 | 18.49450 | 984 ft | 17 kts | 230° |
| 2026-04-21 07:47 | 52.79576 | 18.49435 | 774 ft | 116 kts | 166° |
| 2026-04-21 07:47 | 52.78661 | 18.49787 | 773 ft | 144 kts | 163° |
| 2026-04-21 07:47 | 52.77837 | 18.50629 | 890 ft | 132 kts | 172° |
| 2026-04-21 07:48 | 52.77237 | 18.49748 | 1187 ft | 134 kts | 254° |
| 2026-04-21 07:48 | 52.77101 | 18.48201 | 1264 ft | 132 kts | 311° |
| 2026-04-21 07:48 | 52.77768 | 18.48254 | 1339 ft | 110 kts | 19° |
| 2026-04-21 07:48 | 52.78081 | 18.48862 | 483 ft | 80 kts | 155° |
| 2026-04-21 07:49 | 52.77545 | 18.48775 | 467 ft | 60 kts | 257° |
| 2026-04-21 07:49 | 52.77701 | 18.47979 | 647 ft | 88 kts | 309° |
| 2026-04-21 07:49 | 52.78265 | 18.47401 | 858 ft | 101 kts | 353° |
| 2026-04-21 07:49 | 52.78796 | 18.47021 | 1490 ft | 93 kts | 279° |
| 2026-04-21 07:50 | 52.78506 | 18.45773 | 1517 ft | 130 kts | 254° |
| 2026-04-21 07:50 | 52.78704 | 18.44437 | 1531 ft | 128 kts | 334° |
| 2026-04-21 07:50 | 52.79447 | 18.44870 | 1543 ft | 126 kts | 48° |
| 2026-04-21 07:50 | 52.79766 | 18.46324 | 1454 ft | 139 kts | 91° |
| 2026-04-21 07:51 | 52.79287 | 18.47651 | 1733 ft | 128 kts | 123° |
| 2026-04-21 07:51 | 52.78634 | 18.48681 | 1684 ft | 132 kts | 127° |
| 2026-04-21 07:51 | 52.78279 | 18.49411 | 1776 ft | 119 kts | 112° |
| 2026-04-21 07:51 | 52.78732 | 18.50630 | 1363 ft | 121 kts | 359° |
| 2026-04-21 07:52 | 52.79088 | 18.49986 | 941 ft | 73 kts | 211° |
| 2026-04-21 07:52 | 52.78683 | 18.50055 | 356 ft | 29 kts | 148° |
| 2026-04-21 07:52 | 52.78589 | 18.50096 | 307 ft | 17 kts | 110° |
| 2026-04-21 07:52 | 52.78695 | 18.50069 | 317 ft | 37 kts | 341° |
| 2026-04-21 07:53 | 52.78790 | 18.49892 | 289 ft | 24 kts | 178° |
| 2026-04-21 07:53 | 52.78638 | 18.49970 | 398 ft | 32 kts | 164° |
| 2026-04-21 07:53 | 52.78247 | 18.50284 | 700 ft | 81 kts | 135° |
| 2026-04-21 07:53 | 52.78229 | 18.51152 | 1026 ft | 85 kts | 51° |
| 2026-04-21 07:54 | 52.78825 | 18.51446 | 1356 ft | 103 kts | 5° |
| 2026-04-21 07:54 | 52.79563 | 18.51587 | 1595 ft | 94 kts | 13° |
| 2026-04-21 07:54 | 52.80187 | 18.51574 | 404 ft | 65 kts | 313° |
| 2026-04-21 07:54 | 52.80290 | 18.51373 | 282 ft | 3 kts | 303° |
| 2026-04-21 07:55 | 52.80367 | 18.51206 | 481 ft | 48 kts | 322° |
| 2026-04-21 07:55 | 52.80781 | 18.51161 | 647 ft | 81 kts | 33° |
| 2026-04-21 07:55 | 52.81055 | 18.52101 | 904 ft | 102 kts | 79° |
| 2026-04-21 07:55 | 52.80821 | 18.53298 | 1192 ft | 124 kts | 117° |
| 2026-04-21 07:56 | 52.80048 | 18.54166 | 1268 ft | 147 kts | 154° |
| 2026-04-21 07:56 | 52.79022 | 18.54280 | 1454 ft | 150 kts | 186° |
| 2026-04-21 07:56 | 52.78089 | 18.53542 | 1687 ft | 151 kts | 216° |
| 2026-04-21 07:56 | 52.77590 | 18.52036 | 1797 ft | 154 kts | 265° |
| 2026-04-21 07:57 | 52.77591 | 18.50195 | 1790 ft | 167 kts | 272° |
| 2026-04-21 07:57 | 52.77682 | 18.48218 | 1668 ft | 178 kts | 277° |
| 2026-04-21 07:57 | 52.77490 | 18.46585 | 1703 ft | 104 kts | 182° |
| 2026-04-21 07:57 | 52.77222 | 18.46886 | 855 ft | 57 kts | 51° |
| 2026-04-21 07:58 | 52.77417 | 18.46963 | 472 ft | 17 kts | 289° |
| 2026-04-21 07:58 | 52.77386 | 18.46926 | 420 ft | 1 kts | 260° |
| 2026-04-21 07:58 | 52.77403 | 18.46888 | 383 ft | 6 kts | 19° |
| 2026-04-21 07:58 | 52.77411 | 18.46906 | 287 ft | 0 kts | 73° |
| 2026-04-21 07:59 | 52.77406 | 18.46911 | 359 ft | 11 kts | 73° |
| 2026-04-21 07:59 | 52.77429 | 18.47249 | 495 ft | 54 kts | 77° |
| 2026-04-21 07:59 | 52.77464 | 18.47949 | 584 ft | 65 kts | 77° |
| 2026-04-21 07:59 | 52.77837 | 18.48039 | 747 ft | 71 kts | 322° |
| 2026-04-21 08:00 | 52.77760 | 18.47146 | 764 ft | 90 kts | 247° |
| 2026-04-21 08:00 | 52.77638 | 18.46319 | 758 ft | 53 kts | 269° |
| 2026-04-21 08:00 | 52.77527 | 18.46043 | 708 ft | 38 kts | 135° |
| 2026-04-21 08:00 | 52.77443 | 18.46487 | 587 ft | 49 kts | 72° |
| 2026-04-21 08:01 | 52.77430 | 18.46845 | 461 ft | 9 kts | 71° |
| 2026-04-21 08:01 | 52.77414 | 18.46895 | 352 ft | 6 kts | 85° |
| 2026-04-21 08:01 | 52.77416 | 18.46918 | 290 ft | 0 kts | 88° |
| 2026-04-21 08:03 | 52.77416 | 18.46914 | 326 ft | 0 kts | 92° |
| 2026-04-21 08:03 | 52.77439 | 18.47005 | 598 ft | 37 kts | 81° |
| 2026-04-21 08:03 | 52.77653 | 18.47593 | 582 ft | 74 kts | 51° |
| 2026-04-21 08:03 | 52.78103 | 18.47996 | 626 ft | 66 kts | 4° |
| 2026-04-21 08:04 | 52.78318 | 18.47814 | 536 ft | 17 kts | 357° |
| 2026-04-21 08:04 | 52.78411 | 18.47649 | 469 ft | 24 kts | 350° |
| 2026-04-21 08:04 | 52.78491 | 18.47476 | 380 ft | 13 kts | 330° |
| 2026-04-21 08:04 | 52.78515 | 18.47432 | 281 ft | 1 kts | 305° |
| 2026-04-21 08:05 | 52.78515 | 18.47431 | 274 ft | 0 kts | 294° |
| 2026-04-21 08:05 | 52.78514 | 18.47422 | 326 ft | 3 kts | 339° |
| 2026-04-21 08:05 | 52.78663 | 18.47259 | 505 ft | 56 kts | 345° |
| 2026-04-21 08:06 | 52.79192 | 18.47218 | 410 ft | 96 kts | 14° |
| 2026-04-21 08:06 | 52.79920 | 18.47407 | 305 ft | 111 kts | 5° |
| 2026-04-21 08:06 | 52.80667 | 18.47397 | 459 ft | 95 kts | 341° |
| 2026-04-21 08:06 | 52.80734 | 18.47610 | 391 ft | 61 kts | 171° |
| 2026-04-21 08:07 | 52.80226 | 18.47581 | 306 ft | 83 kts | 182° |
| 2026-04-21 08:07 | 52.79702 | 18.47531 | 483 ft | 78 kts | 179° |
| 2026-04-21 08:07 | 52.79776 | 18.47655 | 399 ft | 55 kts | 350° |
| 2026-04-21 08:07 | 52.80246 | 18.47692 | 370 ft | 75 kts | 6° |
| 2026-04-21 08:08 | 52.80637 | 18.47864 | 429 ft | 36 kts | 147° |
| 2026-04-21 08:08 | 52.80206 | 18.47854 | 355 ft | 85 kts | 179° |
| 2026-04-21 08:08 | 52.79577 | 18.47823 | 450 ft | 88 kts | 180° |
| 2026-04-21 08:08 | 52.79536 | 18.48033 | 449 ft | 54 kts | 3° |
| 2026-04-21 08:09 | 52.80072 | 18.48083 | 395 ft | 90 kts | 4° |
| 2026-04-21 08:09 | 52.80733 | 18.48253 | 428 ft | 105 kts | 30° |
| 2026-04-21 08:09 | 52.81111 | 18.49331 | 472 ft | 114 kts | 71° |
| 2026-04-21 08:09 | 52.81703 | 18.49790 | 497 ft | 104 kts | 358° |
| 2026-04-21 08:10 | 52.81899 | 18.49301 | 586 ft | 52 kts | 166° |
| 2026-04-21 08:10 | 52.81397 | 18.49958 | 561 ft | 119 kts | 144° |
| 2026-04-21 08:10 | 52.80611 | 18.50715 | 582 ft | 133 kts | 148° |
| 2026-04-21 08:10 | 52.79759 | 18.51330 | 687 ft | 140 kts | 155° |
| 2026-04-21 08:11 | 52.78830 | 18.51870 | 768 ft | 139 kts | 157° |
| 2026-04-21 08:11 | 52.77913 | 18.52351 | 947 ft | 140 kts | 162° |
| 2026-04-21 08:11 | 52.77203 | 18.51624 | 1119 ft | 125 kts | 262° |
| 2026-04-21 08:11 | 52.77632 | 18.50577 | 1151 ft | 125 kts | 338° |
| 2026-04-21 08:12 | 52.78523 | 18.49940 | 962 ft | 148 kts | 337° |
| 2026-04-21 08:12 | 52.79472 | 18.49287 | 1067 ft | 147 kts | 338° |
| 2026-04-21 08:12 | 52.80393 | 18.48603 | 1170 ft | 147 kts | 336° |
| 2026-04-21 08:12 | 52.81348 | 18.48248 | 1233 ft | 131 kts | 25° |
| 2026-04-21 08:13 | 52.81646 | 18.49502 | 1399 ft | 131 kts | 107° |
| 2026-04-21 08:13 | 52.80834 | 18.50264 | 1463 ft | 151 kts | 159° |
| 2026-04-21 08:13 | 52.79787 | 18.50755 | 1469 ft | 154 kts | 157° |
| 2026-04-21 08:13 | 52.78812 | 18.51277 | 1790 ft | 142 kts | 153° |
| 2026-04-21 08:14 | 52.77817 | 18.51674 | 1723 ft | 163 kts | 168° |
| 2026-04-21 08:14 | 52.76617 | 18.51518 | 1515 ft | 171 kts | 203° |
| 2026-04-21 08:14 | 52.75840 | 18.50211 | 1750 ft | 159 kts | 242° |
| 2026-04-21 08:14 | 52.75628 | 18.48413 | 1725 ft | 159 kts | 282° |
| 2026-04-21 08:15 | 52.76280 | 18.47115 | 1692 ft | 147 kts | 343° |
| 2026-04-21 08:15 | 52.77295 | 18.47110 | 1623 ft | 148 kts | 10° |
| 2026-04-21 08:15 | 52.78282 | 18.47424 | 1744 ft | 143 kts | 12° |
| 2026-04-21 08:15 | 52.79253 | 18.47769 | 1780 ft | 144 kts | 13° |
| 2026-04-21 08:16 | 52.80235 | 18.48230 | 1790 ft | 148 kts | 14° |
| 2026-04-21 08:16 | 52.81200 | 18.47885 | 1582 ft | 164 kts | 298° |
| 2026-04-21 08:16 | 52.81211 | 18.46083 | 1691 ft | 154 kts | 269° |
| 2026-04-21 08:16 | 52.81226 | 18.44313 | 1812 ft | 153 kts | 277° |
| 2026-04-21 08:17 | 52.81373 | 18.42536 | 1857 ft | 160 kts | 284° |
| 2026-04-21 08:17 | 52.81661 | 18.40708 | 1853 ft | 168 kts | 287° |
| 2026-04-21 08:17 | 52.81932 | 18.38831 | 1833 ft | 168 kts | 283° |
| 2026-04-21 08:17 | 52.82126 | 18.36914 | 1783 ft | 173 kts | 280° |
| 2026-04-21 08:18 | 52.82298 | 18.35073 | 1247 ft | 147 kts | 279° |
| 2026-04-21 08:18 | 52.82218 | 18.33486 | 846 ft | 138 kts | 242° |
| 2026-04-21 08:18 | 52.81815 | 18.32286 | 619 ft | 91 kts | 275° |
| 2026-04-21 08:18 | 52.82069 | 18.31714 | 488 ft | 60 kts | 347° |
| 2026-04-21 08:19 | 52.82389 | 18.31951 | 315 ft | 44 kts | 35° |
| 2026-04-21 08:19 | 52.82547 | 18.32222 | 314 ft | 31 kts | 15° |
| 2026-04-21 08:19 | 52.82779 | 18.31967 | 302 ft | 42 kts | 327° |
| 2026-04-21 08:19 | 52.82854 | 18.31754 | 293 ft | 13 kts | 301° |
| 2026-04-21 08:20 | 52.82874 | 18.31654 | 274 ft | 0 kts | 236° |